Time;durP1;ratioP1;P1;durP2;ratioP2;P2;SDS_P1;SDS_P2;PMS_P1;PMS_P2;Temp;Humidity;BMP_temperature;BMP_pressure;BME280_temperature;BME280_humidity;BME280_pressure;Samples;Min_cycle;Max_cycle;Signal;HPM_P1;HPM_P2
2020/12/17 00:02:03;;;;;;;20.40;8.95;;;;;;;13.04;66.32;154541.59;1776216;81;21173;-69
2020/12/17 00:04:36;;;;;;;20.45;8.13;;;;;;;12.99;67.12;154529.78;1770345;79;21154;-69
2020/12/17 00:07:09;;;;;;;22.62;8.63;;;;;;;13.03;66.47;154538.97;1776268;81;21672;-69
2020/12/17 00:09:41;;;;;;;16.17;8.03;;;;;;;13.01;66.05;154535.05;1779967;78;21190;-69
2020/12/17 00:12:14;;;;;;;20.95;9.93;;;;;;;13.31;65.65;154612.56;1780999;80;21304;-68
2020/12/17 00:14:47;;;;;;;19.55;9.03;;;;;;;13.28;64.71;154605.95;1781123;80;21309;-69
2020/12/17 00:17:20;;;;;;;23.83;9.30;;;;;;;13.36;64.33;154627.02;1781102;79;21352;-69
2020/12/17 00:19:53;;;;;;;22.70;10.48;;;;;;;13.48;64.90;154658.56;1775754;79;21912;-70
2020/12/17 00:22:26;;;;;;;18.37;7.97;;;;;;;13.28;64.88;154605.95;1780932;79;21186;-70
2020/12/17 00:25:01;;;;;;;18.75;7.97;;;;;;;13.38;64.77;154630.94;1781061;79;21340;-70
2020/12/17 00:27:34;;;;;;;16.35;8.08;;;;;;;13.28;63.99;154604.67;1781012;80;21194;-70
2020/12/17 00:30:11;;;;;;;18.15;8.90;;;;;;;13.23;64.06;154591.50;1798603;78;21320;-70
2020/12/17 00:32:44;;;;;;;21.77;8.13;;;;;;;13.30;64.20;154611.22;1805509;78;21228;-70
2020/12/17 00:35:17;;;;;;;17.52;8.00;;;;;;;13.09;63.81;154554.70;1791264;79;21385;-70
2020/12/17 00:37:50;;;;;;;20.48;8.63;;;;;;;13.41;64.42;154638.84;1734907;82;21257;-71
2020/12/17 00:40:24;;;;;;;18.30;8.48;;;;;;;13.48;63.91;154658.56;1730179;82;21317;-70
2020/12/17 00:42:56;;;;;;;23.60;9.38;;;;;;;13.55;64.22;154678.22;1731781;83;21389;-70
2020/12/17 00:45:29;;;;;;;22.95;8.48;;;;;;;13.62;64.20;154695.31;1731898;83;21207;-70
2020/12/17 00:48:01;;;;;;;18.87;7.92;;;;;;;13.71;64.20;154720.31;1730694;83;21323;-70
2020/12/17 00:50:33;;;;;;;17.80;7.85;;;;;;;13.78;63.86;154737.41;1748102;82;21679;-70
2020/12/17 00:53:05;;;;;;;19.23;9.43;;;;;;;13.79;63.37;154740.03;1735023;83;21182;-70
2020/12/17 00:55:38;;;;;;;16.62;7.62;;;;;;;13.70;62.79;154716.38;1732679;83;21190;-70
2020/12/17 00:58:11;;;;;;;17.73;9.48;;;;;;;13.72;62.89;154721.59;1730426;83;21734;-70
2020/12/17 01:00:44;;;;;;;18.90;8.03;;;;;;;13.78;63.31;154738.69;1748209;80;21355;-70
2020/12/17 01:03:16;;;;;;;20.00;8.68;;;;;;;13.86;62.70;154758.42;1718947;81;21229;-70
2020/12/17 01:05:49;;;;;;;20.00;8.00;;;;;;;13.84;62.47;154754.48;1745145;81;21292;-70
2020/12/17 01:08:21;;;;;;;15.48;6.97;;;;;;;13.82;62.64;154749.22;1723000;83;21214;-70
2020/12/17 01:10:53;;;;;;;17.57;8.88;;;;;;;13.87;62.33;154761.05;1700733;84;21708;-70
2020/12/17 01:13:26;;;;;;;14.43;6.92;;;;;;;13.84;62.95;154754.48;1702040;84;21212;-70
2020/12/17 01:15:58;;;;;;;17.57;8.33;;;;;;;13.90;62.60;154768.95;1701934;84;21255;-70
2020/12/17 01:18:31;;;;;;;16.75;8.35;;;;;;;13.94;62.38;154779.48;1713488;83;21743;-70
2020/12/17 01:21:05;;;;;;;19.52;8.95;;;;;;;14.02;61.89;154801.80;1731136;83;21212;-70
2020/12/17 01:23:38;;;;;;;18.23;8.28;;;;;;;13.93;61.39;154778.16;1731072;83;21873;-70
2020/12/17 01:26:11;;;;;;;17.30;7.53;;;;;;;13.81;61.88;154745.31;1723291;83;21181;-70
2020/12/17 01:28:43;;;;;;;15.00;7.97;;;;;;;13.87;61.58;154762.39;1734263;82;21275;-70
2020/12/17 01:31:16;;;;;;;20.85;7.80;;;;;;;13.80;61.45;154743.95;1730196;82;21834;-70
2020/12/17 01:33:48;;;;;;;20.30;7.92;;;;;;;13.75;61.45;154730.84;1741939;82;21381;-70
2020/12/17 01:36:21;;;;;;;16.40;6.90;;;;;;;13.71;61.75;154720.31;1742158;81;21378;-70
2020/12/17 01:38:53;;;;;;;17.45;7.87;;;;;;;13.72;61.34;154722.94;1745297;82;21304;-70
2020/12/17 01:41:26;;;;;;;19.17;7.97;;;;;;;13.70;61.29;154717.67;1749630;81;21228;-70
2020/12/17 01:44:03;;;;;;;18.10;7.20;;;;;;;13.68;61.12;154712.41;1744281;81;21836;-70
2020/12/17 01:46:35;;;;;;;16.42;7.53;;;;;;;13.52;61.17;154667.75;1741793;82;21341;-70
2020/12/17 01:49:08;;;;;;;17.05;7.80;;;;;;;13.65;61.07;154704.56;1742091;82;21318;-70
2020/12/17 01:51:40;;;;;;;14.68;6.70;;;;;;;13.59;61.04;154688.75;1742130;82;21196;-70
2020/12/17 01:54:12;;;;;;;18.87;6.80;;;;;;;13.60;60.98;154691.39;1733661;82;21324;-70
2020/12/17 01:56:48;;;;;;;15.83;7.00;;;;;;;13.67;61.03;154708.48;1729022;83;21331;-70
2020/12/17 01:59:25;;;;;;;21.80;7.42;;;;;;;13.73;61.14;154724.23;1737607;82;21247;-70
2020/12/17 02:01:57;;;;;;;13.55;6.30;;;;;;;13.77;60.86;154736.06;1741731;82;21811;-70
2020/12/17 02:04:30;;;;;;;13.10;6.37;;;;;;;13.87;60.82;154761.05;1741977;82;21380;-70
2020/12/17 02:07:03;;;;;;;16.50;7.95;;;;;;;13.92;60.79;154774.22;1742207;81;21455;-70
2020/12/17 02:09:36;;;;;;;13.00;6.10;;;;;;;14.01;60.79;154797.88;1738167;82;21325;-70
2020/12/17 02:12:09;;;;;;;15.38;6.80;;;;;;;14.08;60.82;154816.27;1738327;82;21203;-70
2020/12/17 02:14:42;;;;;;;15.35;5.83;;;;;;;14.74;59.75;154991.27;1779149;80;21322;-71
2020/12/17 02:17:14;;;;;;;15.43;6.58;;;;;;;14.95;59.40;155046.52;1779580;80;21168;-70
2020/12/17 02:19:47;;;;;;;10.88;6.03;;;;;;;15.11;59.24;155088.66;1779668;80;21313;-70
2020/12/17 02:22:19;;;;;;;11.03;5.45;;;;;;;15.28;59.02;155134.78;1778990;80;21158;-70
2020/12/17 02:24:51;;;;;;;13.03;5.67;;;;;;;15.40;58.41;155166.38;1778958;79;21311;-70
2020/12/17 02:27:25;;;;;;;11.83;5.75;;;;;;;15.40;58.02;155166.38;1778860;80;21220;-70
2020/12/17 02:29:57;;;;;;;15.08;6.62;;;;;;;15.28;57.59;155133.48;1779408;80;21320;-70
2020/12/17 02:32:29;;;;;;;14.25;6.30;;;;;;;15.16;57.53;155103.13;1779143;80;21178;-70
2020/12/17 02:35:04;;;;;;;19.65;8.25;;;;;;;15.17;57.55;155104.42;1779341;80;21220;-70
2020/12/17 02:37:37;;;;;;;13.45;6.53;;;;;;;15.10;57.62;155087.36;1779187;80;21322;-71
2020/12/17 02:40:10;;;;;;;11.55;5.80;;;;;;;15.07;57.59;155079.45;1778786;80;21314;-68
2020/12/17 02:42:42;;;;;;;15.78;6.03;;;;;;;15.07;57.65;155079.45;1779359;80;21314;-67
2020/12/17 02:45:15;;;;;;;12.18;5.50;;;;;;;15.10;57.83;155087.36;1779209;80;21346;-68
2020/12/17 02:47:47;;;;;;;11.55;6.08;;;;;;;15.19;57.79;155109.70;1779532;80;21314;-68
2020/12/17 02:50:20;;;;;;;12.95;5.72;;;;;;;15.19;57.91;155111.03;1779225;80;21669;-68
2020/12/17 02:52:52;;;;;;;12.68;5.78;;;;;;;15.19;57.79;155109.70;1779255;80;21182;-68
2020/12/17 02:55:25;;;;;;;12.75;5.50;;;;;;;15.22;57.66;155117.61;1779168;80;21210;-67
2020/12/17 02:57:57;;;;;;;10.80;5.55;;;;;;;15.21;57.70;155114.97;1779118;80;21324;-69
2020/12/17 03:00:30;;;;;;;10.90;5.45;;;;;;;15.23;57.74;155120.25;1748448;82;21166;-68
2020/12/17 03:03:02;;;;;;;10.93;5.12;;;;;;;15.35;57.58;155151.89;1773780;80;21150;-68
2020/12/17 03:05:35;;;;;;;10.88;5.37;;;;;;;15.30;57.64;155138.70;1778923;80;21203;-68
2020/12/17 03:08:09;;;;;;;12.88;5.65;;;;;;;15.31;57.58;155141.34;1780595;80;21356;-67
2020/12/17 03:10:41;;;;;;;14.00;5.42;;;;;;;15.23;57.80;155120.25;1795231;80;21375;-68
2020/12/17 03:13:14;;;;;;;11.55;5.28;;;;;;;15.28;57.76;155134.78;1801989;79;21324;-68
2020/12/17 03:15:46;;;;;;;13.10;5.85;;;;;;;15.53;57.47;155201.91;1805328;79;21304;-68
2020/12/17 03:18:19;;;;;;;10.60;5.22;;;;;;;15.64;56.95;155230.86;1781368;79;21360;-67
2020/12/17 03:20:52;;;;;;;11.43;5.47;;;;;;;15.64;56.78;155229.56;1775107;81;21328;-67
2020/12/17 03:23:25;;;;;;;11.53;5.12;;;;;;;15.57;57.00;155212.45;1774986;79;21190;-68
2020/12/17 03:25:57;;;;;;;11.28;5.65;;;;;;;15.57;57.07;155211.11;1775048;81;21324;-68
2020/12/17 03:28:30;;;;;;;10.88;5.17;;;;;;;15.62;56.96;155224.30;1780789;79;21337;-67
2020/12/17 03:31:02;;;;;;;12.65;5.37;;;;;;;15.60;56.89;155219.03;1781131;80;21380;-67
2020/12/17 03:33:35;;;;;;;9.80;5.58;;;;;;;15.45;57.13;155179.50;1781362;79;21213;-67
2020/12/17 03:36:07;;;;;;;11.73;5.65;;;;;;;15.66;56.97;155236.14;1781095;80;21200;-68
2020/12/17 03:38:41;;;;;;;12.55;5.22;;;;;;;15.72;56.90;155251.97;1781618;79;21210;-67
2020/12/17 03:41:14;;;;;;;10.10;4.72;;;;;;;15.72;56.88;155251.97;1781526;80;21312;-68
2020/12/17 03:43:47;;;;;;;11.22;5.53;;;;;;;15.79;56.86;155269.09;1781263;79;21311;-67
2020/12/17 03:46:19;;;;;;;14.18;5.00;;;;;;;15.78;56.73;155267.75;1780003;80;21166;-69
2020/12/17 03:48:52;;;;;;;10.20;4.83;;;;;;;15.77;56.77;155263.81;1781172;79;21314;-70
2020/12/17 03:51:25;;;;;;;10.88;5.28;;;;;;;15.66;56.67;155236.14;1739438;82;21732;-70
2020/12/17 03:54:00;;;;;;;10.78;5.10;;;;;;;15.66;56.64;155236.14;1723288;83;21183;-70
2020/12/17 03:56:33;;;;;;;8.65;4.60;;;;;;;15.56;56.93;155208.52;1723373;83;21160;-70
2020/12/17 03:59:06;;;;;;;12.88;5.87;;;;;;;15.56;56.91;155208.52;1726280;83;21208;-72
2020/12/17 04:01:38;;;;;;;10.48;5.10;;;;;;;15.39;56.96;155163.73;1725015;83;21169;-71
2020/12/17 04:04:10;;;;;;;13.35;5.53;;;;;;;15.40;57.02;155166.38;1783159;79;21168;-71
2020/12/17 04:06:43;;;;;;;12.20;5.15;;;;;;;15.36;57.22;155155.81;1733349;82;21716;-72
2020/12/17 04:09:16;;;;;;;11.03;5.12;;;;;;;15.07;57.67;155078.11;1726126;83;21370;-72
2020/12/17 04:11:49;;;;;;;11.08;5.47;;;;;;;15.16;57.75;155101.84;1781129;80;21192;-71
2020/12/17 04:14:21;;;;;;;12.75;5.83;;;;;;;15.48;57.21;155187.42;1733356;81;21173;-71
2020/12/17 04:16:55;;;;;;;15.50;5.87;;;;;;;15.58;57.12;155213.75;1732003;82;21327;-71
2020/12/17 04:19:27;;;;;;;12.05;5.08;;;;;;;15.56;56.90;155208.52;1775929;79;21304;-71
2020/12/17 04:22:00;;;;;;;12.23;5.53;;;;;;;15.57;56.97;155212.45;1780889;80;21333;-71
2020/12/17 04:24:32;;;;;;;12.03;5.30;;;;;;;15.60;56.81;155220.36;1733311;82;21649;-71
2020/12/17 04:27:05;;;;;;;14.30;5.87;;;;;;;15.64;56.88;155229.56;1727078;83;21169;-71
2020/12/17 04:29:42;;;;;;;12.10;5.47;;;;;;;15.68;56.78;155241.42;1731181;82;21377;-71
2020/12/17 04:32:16;;;;;;;12.13;5.20;;;;;;;15.68;56.80;155240.13;1730384;82;21318;-72
2020/12/17 04:34:49;;;;;;;13.68;5.20;;;;;;;15.59;56.58;155216.37;1723141;83;21233;-71
2020/12/17 04:37:22;;;;;;;13.08;5.83;;;;;;;15.46;57.05;155182.14;1726651;81;21312;-71
2020/12/17 04:39:54;;;;;;;12.55;5.85;;;;;;;15.43;56.76;155175.58;1736878;81;21189;-69
2020/12/17 04:42:27;;;;;;;11.60;5.80;;;;;;;15.51;56.71;155195.33;1725661;83;21199;-69
2020/12/17 04:45:01;;;;;;;13.15;6.00;;;;;;;15.39;56.71;155165.03;1723916;83;21256;-69
2020/12/17 04:47:33;;;;;;;12.47;6.05;;;;;;;15.39;56.82;155165.03;1781302;80;21730;-71
2020/12/17 04:50:16;;;;;;;11.38;5.70;;;;;;;15.43;56.89;155175.58;1734179;82;21316;-69
2020/12/17 04:52:47;;;;;;;10.60;5.53;;;;;;;15.53;56.87;155200.61;1710239;83;21239;-68
2020/12/17 04:55:21;;;;;;;13.05;5.45;;;;;;;15.49;56.70;155190.06;1726469;82;21313;-68
2020/12/17 04:57:53;;;;;;;14.28;5.75;;;;;;;15.38;57.00;155161.09;1721331;83;21241;-67
2020/12/17 05:00:26;;;;;;;14.03;5.80;;;;;;;15.34;57.09;155149.25;1727624;82;21824;-66
2020/12/17 05:02:59;;;;;;;13.38;6.60;;;;;;;15.30;56.95;155140.05;1721673;83;21178;-67
2020/12/17 05:05:31;;;;;;;12.63;5.55;;;;;;;15.19;57.15;155111.03;1733129;82;21382;-66
2020/12/17 05:08:03;;;;;;;14.07;5.62;;;;;;;15.19;57.46;155109.70;1729551;83;21324;-70
2020/12/17 05:10:36;;;;;;;13.88;5.62;;;;;;;15.05;57.37;155072.83;1735201;82;21221;-67
2020/12/17 05:13:08;;;;;;;16.00;7.33;;;;;;;14.80;57.73;155008.38;1733465;82;21321;-67
2020/12/17 05:15:41;;;;;;;17.75;6.40;;;;;;;14.79;58.15;155005.73;1731956;81;21338;-67
2020/12/17 05:18:14;;;;;;;13.65;6.40;;;;;;;14.93;58.07;155041.30;1721004;82;21162;-67
2020/12/17 05:20:47;;;;;;;13.43;6.50;;;;;;;15.05;57.82;155072.83;1729289;82;21877;-67
2020/12/17 05:23:20;;;;;;;15.05;6.75;;;;;;;15.08;58.08;155082.09;1733413;82;21326;-67
2020/12/17 05:25:53;;;;;;;14.78;6.95;;;;;;;15.14;57.84;155097.86;1733848;82;21334;-67
2020/12/17 05:28:26;;;;;;;13.72;6.15;;;;;;;15.20;57.79;155113.69;1715620;83;21204;-68
2020/12/17 05:30:59;;;;;;;12.88;6.03;;;;;;;15.29;57.59;155136.06;1733358;83;21196;-67
2020/12/17 05:33:31;;;;;;;15.15;5.90;;;;;;;15.32;57.71;155143.97;1733581;83;21332;-67
2020/12/17 05:36:04;;;;;;;11.15;5.50;;;;;;;15.32;57.69;155143.97;1733365;83;21692;-67
2020/12/17 05:38:36;;;;;;;12.85;5.97;;;;;;;15.41;57.51;155170.30;1735842;82;21299;-67
2020/12/17 05:41:08;;;;;;;11.90;6.28;;;;;;;15.49;57.15;155191.41;1733408;82;21153;-67
2020/12/17 05:43:41;;;;;;;13.00;6.90;;;;;;;15.48;56.97;155187.42;1733210;83;21323;-67
2020/12/17 05:46:13;;;;;;;11.43;5.78;;;;;;;15.81;56.39;155274.31;1733225;83;21378;-67
2020/12/17 05:48:45;;;;;;;11.20;5.45;;;;;;;15.65;56.72;155233.50;1743125;82;21312;-67
2020/12/17 05:51:19;;;;;;;17.10;7.30;;;;;;;15.79;56.67;155269.09;1741165;82;21328;-68
2020/12/17 05:53:53;;;;;;;17.65;6.30;;;;;;;15.71;56.77;155249.33;1733073;83;21177;-67
2020/12/17 05:56:26;;;;;;;11.20;5.67;;;;;;;15.77;56.75;155263.81;1732053;83;21307;-67
2020/12/17 05:59:09;;;;;;;13.38;6.87;;;;;;;15.78;56.53;155267.75;1710216;83;21326;-66
2020/12/17 06:01:39;;;;;;;13.58;6.70;;;;;;;15.88;56.13;155294.08;1733275;82;21362;-67
2020/12/17 06:04:17;;;;;;;13.13;6.47;;;;;;;15.80;56.01;155273.03;1733410;83;21169;-67
2020/12/17 06:06:50;;;;;;;17.50;7.22;;;;;;;15.72;56.18;155251.97;1732209;83;21315;-67
2020/12/17 06:09:23;;;;;;;12.70;6.33;;;;;;;15.30;56.50;155140.05;1741355;82;21284;-67
2020/12/17 06:11:56;;;;;;;13.85;6.03;;;;;;;15.02;57.29;155066.27;1734672;82;21320;-67
2020/12/17 06:14:28;;;;;;;11.12;5.83;;;;;;;14.92;57.54;155039.95;1731821;81;21188;-67
2020/12/17 06:17:02;;;;;;;13.53;6.00;;;;;;;14.88;57.75;155029.41;1735761;82;21355;-67
2020/12/17 06:19:34;;;;;;;9.65;5.30;;;;;;;14.78;58.07;155003.11;1738027;82;21308;-67
2020/12/17 06:22:11;;;;;;;13.05;6.42;;;;;;;14.85;58.15;155021.56;1738408;82;21320;-67
2020/12/17 06:24:43;;;;;;;12.95;6.25;;;;;;;14.93;58.14;155042.59;1734301;82;21165;-67
2020/12/17 06:27:15;;;;;;;12.03;6.40;;;;;;;14.94;57.97;155045.22;1727145;83;21185;-67
2020/12/17 06:29:51;;;;;;;12.07;6.22;;;;;;;14.93;58.04;155041.30;1735251;82;21308;-67
2020/12/17 06:32:23;;;;;;;13.80;6.75;;;;;;;14.97;58.09;155051.80;1745605;81;21344;-67
2020/12/17 06:34:56;;;;;;;11.80;6.17;;;;;;;15.06;57.79;155076.81;1746292;82;21308;-67
2020/12/17 06:37:28;;;;;;;12.58;6.55;;;;;;;15.21;57.69;155114.97;1745159;82;21161;-67
2020/12/17 06:40:00;;;;;;;14.65;7.40;;;;;;;15.01;57.74;155063.63;1703143;82;21200;-67
2020/12/17 06:42:38;;;;;;;15.38;6.62;;;;;;;14.95;57.77;155046.52;1743188;82;21338;-68
2020/12/17 06:45:34;;;;;;;11.85;5.95;;;;;;;14.84;57.77;155018.91;1720129;83;21219;-68
2020/12/17 06:48:41;;;;;;;14.10;6.62;;;;;;;14.85;57.98;155020.20;1726606;82;21202;-68
2020/12/17 06:51:34;;;;;;;14.33;6.90;;;;;;;14.87;58.12;155025.48;1724362;81;21302;-69
2020/12/17 06:54:24;;;;;;;18.32;7.28;;;;;;;14.92;58.24;155038.66;1779317;79;21296;-69
2020/12/17 06:57:12;;;;;;;14.47;7.10;;;;;;;15.00;58.13;155059.70;1776833;79;21143;-68
2020/12/17 06:59:48;;;;;;;17.62;7.85;;;;;;;14.97;58.02;155053.14;1779023;79;21194;-68
2020/12/17 07:02:22;;;;;;;14.53;6.65;;;;;;;14.91;57.94;155037.31;1778123;79;21256;-69
2020/12/17 07:04:55;;;;;;;16.17;8.08;;;;;;;14.89;58.08;155030.75;1752784;80;21352;-69
2020/12/17 07:07:27;;;;;;;14.65;6.85;;;;;;;14.97;58.04;155053.14;1779001;79;21352;-67
2020/12/17 07:10:02;;;;;;;12.73;6.25;;;;;;;14.97;57.96;155051.80;1779751;79;21794;-67
2020/12/17 07:12:43;;;;;;;14.98;6.83;;;;;;;14.96;57.98;155049.16;1775649;79;21313;-70
2020/12/17 07:15:44;;;;;;;;;;;;;;;15.01;57.98;155062.34;1780972;79;21328;-68
2020/12/17 07:18:39;;;;;;;17.50;8.08;;;;;;;15.03;57.97;155068.91;1752377;79;20254;-69
2020/12/17 07:21:20;;;;;;;15.03;6.78;;;;;;;15.05;58.13;155072.83;1752002;81;21874;-68
2020/12/17 07:24:06;;;;;;;21.52;8.98;;;;;;;15.06;57.91;155076.81;1758337;79;21241;-70
2020/12/17 07:26:38;;;;;;;17.50;9.13;;;;;;;14.97;58.03;155051.80;1722019;81;21308;-69
2020/12/17 07:29:13;;;;;;;17.12;7.78;;;;;;;14.98;58.02;155055.78;1763031;81;21390;-69
2020/12/17 07:31:46;;;;;;;14.25;7.85;;;;;;;15.06;58.05;155075.47;1764211;81;21371;-72
2020/12/17 07:34:19;;;;;;;18.92;9.75;;;;;;;15.13;57.96;155095.22;1752905;81;21374;-69
2020/12/17 07:36:51;;;;;;;26.30;12.78;;;;;;;15.17;57.93;155104.42;1721576;81;21321;-70
2020/12/17 07:39:27;;;;;;;28.45;12.05;;;;;;;15.21;57.97;155116.31;1743544;81;21704;-69
2020/12/17 07:42:06;;;;;;;28.98;13.62;;;;;;;15.24;57.90;155122.88;1688483;79;21321;-70
2020/12/17 07:44:38;;;;;;;31.90;14.75;;;;;;;15.16;57.80;155101.84;1749252;81;21227;-68
2020/12/17 07:47:21;;;;;;;29.77;14.35;;;;;;;15.11;57.90;155088.66;1760382;81;21374;-70
2020/12/17 07:49:53;;;;;;;27.15;12.88;;;;;;;15.15;58.08;155099.20;1751258;81;21522;-72
2020/12/17 07:52:33;;;;;;;25.85;13.20;;;;;;;15.24;58.28;155122.88;1737246;81;21699;-71
2020/12/17 07:55:06;;;;;;;27.73;12.68;;;;;;;15.34;58.08;155149.25;1724816;81;21231;-69
2020/12/17 07:57:45;;;;;;;26.87;13.65;;;;;;;15.30;57.90;155138.70;1741975;81;21214;-71
2020/12/17 08:00:20;;;;;;;26.60;13.55;;;;;;;15.33;57.89;155147.95;1750892;81;21371;-69
2020/12/17 08:02:53;;;;;;;24.72;13.08;;;;;;;15.36;57.88;155155.81;1689250;81;21205;-70
2020/12/17 08:05:25;;;;;;;29.63;13.62;;;;;;;15.37;57.92;155158.47;1753184;79;21248;-71
2020/12/17 08:07:58;;;;;;;24.80;13.18;;;;;;;15.45;57.66;155179.50;1764869;81;21743;-70
2020/12/17 08:10:31;;;;;;;28.55;13.85;;;;;;;15.28;57.98;155133.48;1767735;79;21224;-70
2020/12/17 08:13:03;;;;;;;26.33;12.47;;;;;;;15.28;58.05;155133.48;1716101;82;21296;-69
2020/12/17 08:15:36;;;;;;;24.40;12.93;;;;;;;15.33;58.02;155146.62;1762605;79;21829;-69
2020/12/17 08:18:08;;;;;;;22.65;12.88;;;;;;;15.33;58.00;155146.62;1760146;78;21926;-70
2020/12/17 08:20:41;;;;;;;26.50;13.38;;;;;;;15.36;57.81;155155.81;1782087;79;21440;-72
2020/12/17 08:23:20;;;;;;;29.65;14.45;;;;;;;15.34;57.65;155149.25;1781136;79;21247;-70
2020/12/17 08:25:53;;;;;;;37.80;15.78;;;;;;;15.30;57.84;155140.05;1781941;79;21893;-71
2020/12/17 08:28:27;;;;;;;29.72;16.17;;;;;;;15.28;57.81;155133.48;1781576;79;21208;-71
2020/12/17 08:31:15;;;;;;;32.75;16.90;;;;;;;15.22;57.78;155117.61;1764077;80;21386;-70
2020/12/17 08:33:58;;;;;;;31.87;17.02;;;;;;;15.15;58.04;155100.50;1781787;79;21355;-73
2020/12/17 08:36:33;;;;;;;34.35;18.25;;;;;;;15.07;58.27;155079.45;1781581;79;21323;-71
2020/12/17 08:39:09;;;;;;;36.23;18.48;;;;;;;15.15;58.19;155100.50;1781541;79;21172;-69
2020/12/17 08:41:49;;;;;;;36.63;19.23;;;;;;;15.23;57.97;155120.25;1781080;79;21365;-71
2020/12/17 08:44:29;;;;;;;37.20;18.25;;;;;;;15.38;57.89;155159.80;1781646;79;21373;-70
2020/12/17 08:47:07;;;;;;;36.80;20.75;;;;;;;15.31;58.14;155141.34;1781517;79;21378;-68
2020/12/17 08:49:39;;;;;;;33.83;16.77;;;;;;;15.35;58.06;155153.19;1781572;79;21311;-69
2020/12/17 08:52:13;;;;;;;30.77;16.52;;;;;;;15.34;57.82;155149.25;1781144;79;21340;-69
2020/12/17 08:54:45;;;;;;;29.80;16.35;;;;;;;15.21;57.71;155116.31;1781587;79;21747;-70
2020/12/17 08:57:19;;;;;;;32.78;15.53;;;;;;;15.09;57.85;155084.72;1781859;79;21412;-72
2020/12/17 08:59:55;;;;;;;35.10;17.07;;;;;;;15.01;57.94;155063.63;1781146;79;21388;-72
2020/12/17 09:02:32;;;;;;;33.60;16.65;;;;;;;14.85;58.03;155020.20;1778022;79;21304;-71
2020/12/17 09:05:06;;;;;;;35.65;17.80;;;;;;;14.79;58.21;155004.44;1782100;79;21388;-71
2020/12/17 09:07:46;;;;;;;36.38;17.50;;;;;;;14.75;58.39;154993.91;1781356;80;21162;-69
2020/12/17 09:10:17;;;;;;;37.73;17.25;;;;;;;14.73;58.48;154988.63;1782053;79;21289;-69
2020/12/17 09:12:57;;;;;;;32.67;16.07;;;;;;;14.69;58.63;154978.14;1783218;80;21776;-69
2020/12/17 09:15:29;;;;;;;35.70;15.85;;;;;;;14.75;58.50;154995.25;1759987;81;21748;-69
2020/12/17 09:18:10;;;;;;;33.40;15.38;;;;;;;14.79;58.64;155004.44;1751799;82;21202;-69
2020/12/17 09:20:42;;;;;;;32.08;15.48;;;;;;;14.79;58.76;155004.44;1769469;81;21314;-69
2020/12/17 09:23:15;;;;;;;26.90;14.18;;;;;;;14.88;58.71;155028.12;1775552;81;21298;-69
2020/12/17 09:25:47;;;;;;;31.93;14.78;;;;;;;14.89;58.79;155032.05;1775456;81;21735;-69
2020/12/17 09:28:22;;;;;;;31.00;14.50;;;;;;;14.95;58.85;155046.52;1775763;81;21166;-69
2020/12/17 09:30:54;;;;;;;30.72;15.25;;;;;;;15.06;58.96;155076.81;1775616;81;21178;-68
2020/12/17 09:33:26;;;;;;;28.60;14.00;;;;;;;15.19;58.77;155111.03;1776111;81;21217;-69
2020/12/17 09:35:59;;;;;;;30.70;14.70;;;;;;;15.28;58.50;155133.48;1774852;81;21374;-69
2020/12/17 09:38:31;;;;;;;27.07;13.78;;;;;;;15.28;58.43;155134.78;1741565;81;21230;-69
2020/12/17 09:41:04;;;;;;;27.87;14.00;;;;;;;15.33;58.49;155147.95;1710384;84;21413;-69
2020/12/17 09:43:48;;;;;;;31.35;14.55;;;;;;;15.40;58.43;155167.66;1710226;84;21366;-69
2020/12/17 09:46:23;;;;;;;31.25;14.47;;;;;;;15.44;58.18;155176.92;1688504;84;21656;-69
2020/12/17 09:48:59;;;;;;;30.17;14.95;;;;;;;15.49;58.21;155190.06;1710350;84;21810;-69
2020/12/17 09:51:29;;;;;;;34.10;16.65;;;;;;;15.55;58.07;155207.17;1710232;84;21169;-69
2020/12/17 09:54:04;;;;;;;32.08;14.87;;;;;;;15.58;58.16;155213.75;1710364;84;21185;-68
2020/12/17 09:56:36;;;;;;;35.17;15.72;;;;;;;15.66;58.09;155234.84;1710124;84;21442;-69
2020/12/17 09:59:08;;;;;;;24.87;13.88;;;;;;;15.66;58.02;155236.14;1710545;82;21363;-69
2020/12/17 10:01:42;;;;;;;28.07;13.65;;;;;;;15.67;57.85;155238.78;1709805;82;21314;-69
2020/12/17 10:04:15;;;;;;;28.90;13.85;;;;;;;15.62;57.87;155225.59;1709953;84;21272;-69
2020/12/17 10:06:48;;;;;;;26.65;13.62;;;;;;;15.63;57.94;155228.23;1711138;84;21249;-69
2020/12/17 10:09:21;;;;;;;30.15;15.15;;;;;;;15.72;57.81;155251.97;1710784;82;21445;-70
2020/12/17 10:11:55;;;;;;;27.37;13.85;;;;;;;15.81;57.81;155275.66;1714562;83;21323;-69
2020/12/17 10:14:29;;;;;;;25.88;13.53;;;;;;;15.93;57.24;155305.94;1775722;80;21799;-70
2020/12/17 10:17:02;;;;;;;26.85;13.75;;;;;;;15.84;57.29;155283.58;1774909;81;21229;-70
2020/12/17 10:19:34;;;;;;;22.67;12.78;;;;;;;15.84;57.28;155283.58;1775381;81;21220;-71
2020/12/17 10:22:07;;;;;;;25.40;12.25;;;;;;;15.84;57.16;155283.58;1789514;80;21255;-70
2020/12/17 10:24:39;;;;;;;27.13;11.83;;;;;;;15.80;57.24;155271.69;1789677;79;21273;-69
2020/12/17 10:27:12;;;;;;;23.92;11.93;;;;;;;15.80;57.20;155273.03;1777046;79;21353;-72
2020/12/17 10:29:44;;;;;;;24.45;12.47;;;;;;;15.82;57.25;155276.95;1789894;79;21190;-70
2020/12/17 10:32:18;;;;;;;24.02;11.75;;;;;;;15.78;57.14;155267.75;1789687;80;21198;-70
2020/12/17 10:34:51;;;;;;;26.90;12.07;;;;;;;15.70;57.20;155246.69;1789823;80;21182;-71
2020/12/17 10:37:23;;;;;;;26.45;12.88;;;;;;;15.71;57.27;155249.33;1789700;80;21161;-71
2020/12/17 10:39:56;;;;;;;27.67;11.83;;;;;;;15.72;57.32;155251.97;1789713;80;21347;-71
2020/12/17 10:42:28;;;;;;;26.90;13.25;;;;;;;15.73;57.35;155254.61;1789846;80;21285;-71
2020/12/17 10:45:01;;;;;;;26.70;12.55;;;;;;;15.74;57.39;155255.91;1774281;80;21173;-70
2020/12/17 10:47:33;;;;;;;23.77;12.47;;;;;;;15.83;57.25;155279.59;1789814;80;21205;-70
2020/12/17 10:50:07;;;;;;;25.77;12.88;;;;;;;15.83;57.17;155279.59;1789841;80;21684;-70
2020/12/17 10:52:40;;;;;;;24.77;13.50;;;;;;;15.78;57.13;155267.75;1789465;80;21161;-71
2020/12/17 10:55:14;;;;;;;25.80;12.53;;;;;;;15.77;57.22;155263.81;1789657;80;21232;-70
2020/12/17 10:57:46;;;;;;;32.15;14.35;;;;;;;15.77;57.30;155265.11;1789426;80;21303;-70
2020/12/17 11:00:18;;;;;;;36.13;15.80;;;;;;;15.75;57.10;155259.83;1789834;80;21169;-70
2020/12/17 11:02:51;;;;;;;37.70;17.77;;;;;;;15.66;57.22;155234.84;1789367;79;21720;-70
2020/12/17 11:05:23;;;;;;;31.75;15.30;;;;;;;15.61;57.31;155221.66;1789440;80;21260;-71
2020/12/17 11:07:55;;;;;;;32.05;15.88;;;;;;;15.66;57.42;155234.84;1789419;80;21335;-70
2020/12/17 11:10:28;;;;;;;31.15;16.00;;;;;;;15.70;57.48;155246.69;1789451;80;21341;-70
2020/12/17 11:13:00;;;;;;;33.80;16.30;;;;;;;15.75;57.38;155259.83;1789663;80;21304;-70
2020/12/17 11:15:33;;;;;;;31.48;16.55;;;;;;;15.75;57.32;155258.53;1788243;79;21374;-70
2020/12/17 11:18:05;;;;;;;29.15;14.58;;;;;;;15.79;57.22;155269.09;1788863;80;21339;-71
2020/12/17 11:20:37;;;;;;;33.67;16.42;;;;;;;15.77;57.00;155265.11;1789478;79;21657;-71
2020/12/17 11:23:09;;;;;;;28.70;14.68;;;;;;;15.77;57.02;155265.11;1783988;79;21410;-70
2020/12/17 11:25:42;;;;;;;34.60;17.07;;;;;;;15.80;57.07;155271.69;1786287;80;21363;-71
2020/12/17 11:28:14;;;;;;;34.53;15.45;;;;;;;15.82;57.09;155278.31;1786848;80;21316;-70
2020/12/17 11:30:46;;;;;;;33.05;15.30;;;;;;;15.89;57.20;155296.72;1787256;80;21154;-71
2020/12/17 11:33:19;;;;;;;30.50;15.60;;;;;;;15.93;57.16;155307.27;1786863;80;21332;-71
2020/12/17 11:35:53;;;;;;;28.92;15.60;;;;;;;15.97;57.02;155317.78;1786957;80;21805;-70
2020/12/17 11:38:25;;;;;;;30.37;15.10;;;;;;;15.98;57.07;155319.12;1786917;80;21182;-70
2020/12/17 11:40:57;;;;;;;32.78;15.00;;;;;;;16.00;56.99;155324.41;1788156;79;21279;-70
2020/12/17 11:43:31;;;;;;;31.93;15.38;;;;;;;15.94;56.93;155308.56;1803346;79;21158;-71
2020/12/17 11:46:04;;;;;;;28.35;14.03;;;;;;;15.88;57.14;155292.78;1793912;79;21266;-70